Garland Springs, Arkansas
Current Conditions -  °F | °C
As of 6:08 AM on Monday 22 Dec 2014 (Local Time) from KSRC Reporting Station
Light Rain Light Rain  
Wind Chill: 44°   Ceiling: NA
Heat Index: 48°   Visibility: 4mi
Dew Point: 48°   Wind: 10mph
Humidity: 100%   Direction: 170°S
Pressure: 29.79"   Gusts: NA
Location:  35.2847°N, 92.1468°W
Report Text: KSRC 221208Z AUTO 17009KT 4SM -RA BR 09/09 A2979 RMK AO2 P0000 TSNO $
Loading
Personal Weather Stations






























Interactive Weather Map New forecast layout! Learn more

10-Day Weather Forecast

Advertisements
Track Severe Weather on mobile